createdAt,value
2022-12-23T00:01:01.293Z,21.70
2022-12-23T00:03:28.299Z,21.70
2022-12-23T00:05:55.027Z,21.70
2022-12-23T00:08:21.860Z,21.70
2022-12-23T00:10:49.416Z,21.70
2022-12-23T00:13:34.600Z,21.70
2022-12-23T00:16:05.827Z,21.70
2022-12-23T00:18:32.526Z,21.70
2022-12-23T00:21:08.559Z,21.70
2022-12-23T00:23:36.873Z,21.70
2022-12-23T00:26:03.489Z,21.70
2022-12-23T00:28:30.199Z,21.70
2022-12-23T00:31:05.058Z,21.70
2022-12-23T00:33:36.925Z,21.70
2022-12-23T00:36:14.532Z,21.70
2022-12-23T00:38:59.789Z,21.70
2022-12-23T00:41:45.284Z,21.70
2022-12-23T00:44:11.881Z,21.70
2022-12-23T00:46:38.500Z,21.70
2022-12-23T00:49:24.499Z,21.70
2022-12-23T00:51:51.191Z,21.70
2022-12-23T00:54:17.801Z,21.70
2022-12-23T00:56:44.393Z,21.70
2022-12-23T00:59:11.013Z,21.70
2022-12-23T01:01:56.756Z,21.60
2022-12-23T01:04:58.968Z,21.70
2022-12-23T01:07:25.649Z,21.60
2022-12-23T01:09:52.253Z,21.60
2022-12-23T01:12:18.895Z,21.60
2022-12-23T01:14:45.618Z,21.60
2022-12-23T01:17:12.253Z,21.60
2022-12-23T01:19:38.886Z,21.60
2022-12-23T01:22:05.488Z,21.60
2022-12-23T01:24:32.269Z,21.60
2022-12-23T01:26:58.935Z,21.60
2022-12-23T01:29:25.580Z,21.60
2022-12-23T01:31:52.242Z,21.60
2022-12-23T01:34:18.942Z,21.60
2022-12-23T01:36:45.532Z,21.60
2022-12-23T01:39:12.131Z,21.60
2022-12-23T01:41:57.437Z,21.60
2022-12-23T01:44:48.752Z,21.60
2022-12-23T01:47:29.287Z,21.60
2022-12-23T01:49:59.873Z,21.60
2022-12-23T01:52:26.478Z,21.60
2022-12-23T01:54:53.443Z,21.60
2022-12-23T01:57:20.015Z,21.60
2022-12-23T02:00:05.365Z,21.60
2022-12-23T02:02:50.835Z,21.60
2022-12-23T02:05:17.539Z,21.60
2022-12-23T02:08:02.855Z,21.60
2022-12-23T02:10:32.653Z,21.60
2022-12-23T02:13:11.287Z,21.60
2022-12-23T02:16:05.787Z,21.60
2022-12-23T02:18:51.027Z,21.60
2022-12-23T02:21:41.282Z,21.60
2022-12-23T02:24:50.063Z,21.60
2022-12-23T02:27:26.989Z,21.60
2022-12-23T02:29:59.687Z,21.60
2022-12-23T02:32:52.735Z,21.60
2022-12-23T02:35:41.219Z,21.50
2022-12-23T02:38:36.365Z,21.50
2022-12-23T02:41:11.214Z,21.60
2022-12-23T02:44:01.875Z,21.60
2022-12-23T02:46:56.545Z,21.60
2022-12-23T02:49:32.561Z,21.50
2022-12-23T02:51:59.520Z,21.60
2022-12-23T02:54:29.389Z,21.50
2022-12-23T02:56:56.008Z,21.50
2022-12-23T02:59:27.741Z,21.60
2022-12-23T03:01:54.379Z,21.50
2022-12-23T03:04:21.230Z,21.50
2022-12-23T03:06:52.503Z,21.50
2022-12-23T03:09:32.787Z,21.50
2022-12-23T03:12:08.654Z,21.50
2022-12-23T03:14:53.663Z,21.50
2022-12-23T03:17:41.331Z,21.50
2022-12-23T03:20:07.852Z,21.50
2022-12-23T03:22:49.768Z,21.50
2022-12-23T03:25:23.573Z,21.50
2022-12-23T03:27:57.182Z,21.50
2022-12-23T03:30:23.761Z,21.50
2022-12-23T03:33:05.155Z,21.50
2022-12-23T03:35:35.468Z,21.50
2022-12-23T03:38:02.788Z,21.50
2022-12-23T03:40:41.673Z,21.50
2022-12-23T03:43:11.721Z,21.50
2022-12-23T03:45:41.787Z,21.50
2022-12-23T03:48:20.998Z,21.50
2022-12-23T03:50:47.843Z,21.50
2022-12-23T03:53:18.734Z,21.50
2022-12-23T03:55:51.644Z,21.50
2022-12-23T03:58:34.774Z,21.50
2022-12-23T04:01:17.927Z,21.50
2022-12-23T04:03:53.768Z,21.50
2022-12-23T04:06:20.494Z,21.50
2022-12-23T04:08:47.119Z,21.50
2022-12-23T04:11:13.749Z,21.50
2022-12-23T04:13:40.355Z,21.50
2022-12-23T04:16:07.264Z,21.50
2022-12-23T04:18:33.915Z,21.50
2022-12-23T04:21:00.490Z,21.50
2022-12-23T04:23:27.103Z,21.50
2022-12-23T04:25:53.684Z,21.50
2022-12-23T04:28:20.351Z,21.50
2022-12-23T04:30:46.946Z,21.50
2022-12-23T04:33:13.539Z,21.50
2022-12-23T04:35:40.158Z,21.50
2022-12-23T04:38:06.797Z,21.50
2022-12-23T04:40:33.395Z,21.50
2022-12-23T04:43:00.003Z,21.50
2022-12-23T04:45:26.643Z,21.50
2022-12-23T04:47:54.514Z,21.50
2022-12-23T04:50:21.166Z,21.50
2022-12-23T04:52:47.779Z,21.50
2022-12-23T04:55:14.370Z,21.50
2022-12-23T04:57:41.007Z,21.50
2022-12-23T05:00:08.239Z,21.50
2022-12-23T05:02:34.908Z,21.50
2022-12-23T05:05:01.592Z,21.40
2022-12-23T05:07:28.184Z,21.40
2022-12-23T05:09:54.829Z,21.40
2022-12-23T05:12:21.449Z,21.50
2022-12-23T05:14:48.068Z,21.40
2022-12-23T05:17:14.657Z,21.40
2022-12-23T05:19:41.255Z,21.40
2022-12-23T05:22:07.824Z,21.40
2022-12-23T05:24:34.418Z,21.40
2022-12-23T05:27:01.084Z,21.40
2022-12-23T05:29:28.038Z,21.40
2022-12-23T05:31:54.693Z,21.40
2022-12-23T05:34:21.404Z,21.40
2022-12-23T05:36:48.010Z,21.40
2022-12-23T05:39:14.632Z,21.40
2022-12-23T05:41:41.224Z,21.40
2022-12-23T05:44:07.818Z,21.40
2022-12-23T05:46:34.699Z,21.40
2022-12-23T05:49:01.358Z,21.40
2022-12-23T05:51:28.012Z,21.40
2022-12-23T05:53:54.600Z,21.40
2022-12-23T05:56:21.178Z,21.40
2022-12-23T05:58:47.755Z,21.40
2022-12-23T06:01:14.378Z,21.40
2022-12-23T06:03:41.133Z,21.40
2022-12-23T06:06:08.267Z,21.40
2022-12-23T06:08:34.860Z,21.40
2022-12-23T06:11:04.744Z,21.40
2022-12-23T06:13:31.341Z,21.40
2022-12-23T06:15:57.952Z,21.40
2022-12-23T06:18:24.541Z,21.40
2022-12-23T06:20:51.150Z,21.40
2022-12-23T06:23:17.748Z,21.40
2022-12-23T06:25:44.350Z,21.40
2022-12-23T06:28:10.949Z,21.40
2022-12-23T06:30:37.554Z,21.40
2022-12-23T06:33:04.232Z,21.40
2022-12-23T06:35:30.843Z,21.40
2022-12-23T06:37:57.429Z,21.40
2022-12-23T06:40:24.025Z,21.40
2022-12-23T06:42:50.642Z,21.40
2022-12-23T06:45:17.351Z,21.40
2022-12-23T06:47:43.942Z,21.40
2022-12-23T06:50:10.861Z,21.40
2022-12-23T06:52:37.440Z,21.40
2022-12-23T06:55:04.363Z,21.40
2022-12-23T06:57:30.957Z,21.40
2022-12-23T06:59:57.560Z,21.40
2022-12-23T07:02:24.223Z,21.40
2022-12-23T07:04:51.136Z,21.40
2022-12-23T07:07:17.760Z,21.30
2022-12-23T07:09:44.411Z,21.40
2022-12-23T07:12:11.039Z,21.40
2022-12-23T07:14:37.619Z,21.30
2022-12-23T07:17:04.239Z,21.40
2022-12-23T07:19:31.013Z,21.40
2022-12-23T07:21:57.631Z,21.40
2022-12-23T07:24:24.315Z,21.30
2022-12-23T07:26:51.462Z,21.40
2022-12-23T07:29:18.068Z,21.40
2022-12-23T07:31:44.783Z,21.30
2022-12-23T07:34:11.466Z,21.40
2022-12-23T07:36:38.084Z,21.30
2022-12-23T07:39:04.707Z,21.30
2022-12-23T07:41:31.300Z,21.30
2022-12-23T07:43:57.955Z,21.30
2022-12-23T07:46:24.661Z,21.30
2022-12-23T07:48:51.371Z,21.30
2022-12-23T07:51:17.965Z,21.30
2022-12-23T07:53:50.676Z,21.30
2022-12-23T07:56:18.038Z,21.30
2022-12-23T07:58:51.195Z,21.30
2022-12-23T08:01:18.301Z,21.40
2022-12-23T08:03:45.054Z,21.40
2022-12-23T08:06:13.069Z,21.40
2022-12-23T08:08:40.185Z,21.40
2022-12-23T08:11:08.203Z,21.50
2022-12-23T08:13:36.138Z,21.50
2022-12-23T08:16:03.029Z,21.50
2022-12-23T08:18:30.370Z,21.50
2022-12-23T08:20:58.027Z,21.50
2022-12-23T08:23:25.338Z,21.50
2022-12-23T08:26:02.202Z,21.50
2022-12-23T08:28:28.968Z,21.60
2022-12-23T08:30:55.584Z,21.60
2022-12-23T08:33:22.196Z,21.60
2022-12-23T08:35:48.794Z,21.60
2022-12-23T08:38:15.395Z,21.60
2022-12-23T08:40:42.011Z,21.60
2022-12-23T08:43:09.328Z,21.60
2022-12-23T08:45:38.281Z,21.60
2022-12-23T08:48:06.013Z,21.60
2022-12-23T08:50:40.439Z,21.60
2022-12-23T08:53:07.051Z,21.60
2022-12-23T08:55:40.970Z,21.60
2022-12-23T08:58:08.166Z,21.60
2022-12-23T09:00:35.188Z,21.60
2022-12-23T09:03:02.094Z,21.60
2022-12-23T09:05:28.925Z,21.70
2022-12-23T09:07:55.587Z,21.70
2022-12-23T09:10:23.211Z,21.70
2022-12-23T09:12:49.873Z,21.70
2022-12-23T09:15:16.546Z,21.70
2022-12-23T09:17:43.601Z,21.70
2022-12-23T09:20:10.604Z,21.70
2022-12-23T09:22:37.256Z,21.70
2022-12-23T09:25:05.432Z,21.70
2022-12-23T09:27:32.229Z,21.70
2022-12-23T09:29:58.841Z,21.70
2022-12-23T09:32:25.448Z,21.70
2022-12-23T09:34:52.062Z,21.70
2022-12-23T09:37:18.670Z,21.70
2022-12-23T09:39:45.335Z,21.80
2022-12-23T09:42:46.972Z,21.80
2022-12-23T09:45:25.605Z,21.80
2022-12-23T09:47:53.142Z,21.80
2022-12-23T09:50:29.002Z,21.80
2022-12-23T09:53:02.465Z,21.80
2022-12-23T09:55:52.641Z,21.80
2022-12-23T09:58:27.091Z,21.80
2022-12-23T10:01:19.223Z,21.80
2022-12-23T10:04:22.051Z,21.80
2022-12-23T10:07:03.818Z,21.80
2022-12-23T10:09:37.054Z,21.80
2022-12-23T10:12:20.965Z,21.80
2022-12-23T10:14:50.647Z,21.80
2022-12-23T10:17:27.798Z,21.80
2022-12-23T10:19:54.834Z,21.80
2022-12-23T10:22:35.561Z,21.80
2022-12-23T10:25:03.399Z,21.80
2022-12-23T10:27:38.449Z,21.80
2022-12-23T10:30:41.995Z,21.90
2022-12-23T10:33:02.130Z,21.90
2022-12-23T10:35:45.778Z,21.90
2022-12-23T10:38:33.956Z,21.90
2022-12-23T10:41:24.798Z,21.90
2022-12-23T10:44:22.655Z,21.90
2022-12-23T10:46:55.002Z,21.90
2022-12-23T10:49:39.770Z,21.90
2022-12-23T10:52:14.522Z,21.90
2022-12-23T10:54:41.943Z,21.90
2022-12-23T10:57:08.542Z,21.90
2022-12-23T10:59:35.707Z,21.90
2022-12-23T11:02:12.438Z,21.90
2022-12-23T11:04:41.073Z,21.90
2022-12-23T11:07:42.919Z,21.90
2022-12-23T11:10:00.573Z,21.90
2022-12-23T11:12:42.250Z,21.90
2022-12-23T11:15:29.788Z,22.00
2022-12-23T11:18:11.453Z,22.00
2022-12-23T11:20:38.367Z,22.00
2022-12-23T11:23:05.897Z,22.00
2022-12-23T11:25:42.549Z,22.00
2022-12-23T11:28:14.698Z,22.00
2022-12-23T11:30:57.339Z,22.00
2022-12-23T11:33:26.680Z,22.00
2022-12-23T11:36:12.153Z,22.00
2022-12-23T11:38:49.811Z,22.00
2022-12-23T11:41:27.417Z,22.00
2022-12-23T11:44:18.627Z,22.00
2022-12-23T11:46:45.265Z,22.00
2022-12-23T11:49:34.117Z,22.00
2022-12-23T11:52:04.507Z,22.00
2022-12-23T11:54:31.314Z,22.00
2022-12-23T11:56:58.055Z,22.00
2022-12-23T11:59:30.687Z,22.00
2022-12-23T12:01:58.923Z,22.00
2022-12-23T12:04:25.732Z,22.00
2022-12-23T12:06:56.417Z,22.00
2022-12-23T12:09:24.139Z,22.00
2022-12-23T12:12:12.396Z,22.00
2022-12-23T12:14:44.172Z,22.00
2022-12-23T12:17:26.395Z,22.00
2022-12-23T12:20:00.471Z,22.00
2022-12-23T12:22:39.927Z,22.00
2022-12-23T12:25:19.864Z,22.00
2022-12-23T12:27:54.933Z,22.00
2022-12-23T12:30:21.733Z,22.00
2022-12-23T12:33:06.677Z,22.00
2022-12-23T12:35:53.830Z,22.00
2022-12-23T12:38:29.206Z,22.00
2022-12-23T12:40:59.641Z,22.00
2022-12-23T12:43:32.506Z,22.00
2022-12-23T12:46:17.896Z,22.00
2022-12-23T12:48:49.046Z,22.00
2022-12-23T12:51:23.249Z,22.00
2022-12-23T12:54:19.964Z,22.00
2022-12-23T12:56:49.629Z,22.00
2022-12-23T12:59:17.769Z,22.00
2022-12-23T13:01:55.547Z,22.00
2022-12-23T13:04:47.972Z,22.00
2022-12-23T13:07:24.677Z,22.10
2022-12-23T13:10:20.698Z,22.10
2022-12-23T13:12:56.361Z,22.10
2022-12-23T13:15:29.497Z,22.10
2022-12-23T13:18:12.621Z,22.10
2022-12-23T13:20:46.445Z,22.10
2022-12-23T13:26:50.233Z,22.10
2022-12-23T13:29:39.457Z,22.10
2022-12-23T13:32:40.576Z,22.10
2022-12-23T13:35:20.328Z,22.10
2022-12-23T13:38:04.103Z,22.10
2022-12-23T13:40:57.444Z,22.10
2022-12-23T13:43:24.925Z,22.10
2022-12-23T13:45:52.668Z,22.10
2022-12-23T13:48:43.826Z,22.10
2022-12-23T13:51:18.102Z,22.10
2022-12-23T13:53:55.281Z,22.10
2022-12-23T13:56:42.396Z,22.10
2022-12-23T13:59:10.665Z,22.10
2022-12-23T14:01:40.313Z,22.10
2022-12-23T14:04:56.910Z,22.10
2022-12-23T14:07:23.540Z,22.10
2022-12-23T14:09:57.494Z,22.10
2022-12-23T14:12:28.700Z,22.10
2022-12-23T14:14:55.225Z,22.10
2022-12-23T14:18:05.112Z,22.10
2022-12-23T14:20:43.602Z,22.10
2022-12-23T14:23:35.267Z,22.10
2022-12-23T14:26:10.873Z,22.10
2022-12-23T14:28:49.620Z,22.10
2022-12-23T14:31:39.864Z,22.10
2022-12-23T14:34:30.377Z,22.10
2022-12-23T14:37:28.579Z,22.10
2022-12-23T14:39:55.173Z,22.10
2022-12-23T14:42:41.328Z,22.10
2022-12-23T14:45:36.428Z,22.10
2022-12-23T14:48:24.084Z,22.10
2022-12-23T14:51:08.439Z,22.10
2022-12-23T14:53:58.579Z,22.10
2022-12-23T14:56:43.332Z,22.10
2022-12-23T14:59:48.101Z,22.10
2022-12-23T15:02:30.903Z,22.10
2022-12-23T15:04:57.874Z,22.10
2022-12-23T15:07:35.122Z,22.10
2022-12-23T15:10:06.687Z,22.10
2022-12-23T15:12:38.200Z,22.10
2022-12-23T15:15:14.784Z,22.10
2022-12-23T15:17:41.393Z,22.10
2022-12-23T15:20:20.276Z,22.10
2022-12-23T15:22:47.300Z,22.10
2022-12-23T15:25:34.188Z,22.10
2022-12-23T15:28:02.576Z,22.10
2022-12-23T15:30:33.970Z,22.10
2022-12-23T15:33:03.332Z,22.10
2022-12-23T15:35:34.906Z,22.10
2022-12-23T15:38:01.898Z,22.10
2022-12-23T15:40:34.700Z,22.10
2022-12-23T15:43:01.783Z,22.10
2022-12-23T15:45:40.903Z,22.10
2022-12-23T15:48:25.054Z,22.10
2022-12-23T15:50:53.281Z,22.10
2022-12-23T15:53:19.893Z,22.10
2022-12-23T15:55:47.265Z,22.10
2022-12-23T15:58:22.105Z,22.10
2022-12-23T16:00:55.856Z,22.10
2022-12-23T16:03:31.942Z,22.10
2022-12-23T16:06:17.761Z,22.10
2022-12-23T16:08:44.993Z,22.10
2022-12-23T16:11:12.686Z,22.10
2022-12-23T16:13:44.943Z,22.10
2022-12-23T16:16:38.209Z,22.10
2022-12-23T16:19:05.453Z,22.10
2022-12-23T16:21:35.806Z,22.10
2022-12-23T16:24:06.326Z,22.10
2022-12-23T16:26:38.323Z,22.10
2022-12-23T16:29:04.929Z,22.10
2022-12-23T16:31:31.629Z,22.10
2022-12-23T16:33:58.434Z,22.10
2022-12-23T16:36:25.011Z,22.10
2022-12-23T16:39:01.432Z,22.10
2022-12-23T16:41:28.024Z,22.10
2022-12-23T16:43:54.900Z,22.10
2022-12-23T16:46:22.643Z,22.10
2022-12-23T16:48:50.137Z,22.10
2022-12-23T16:51:20.026Z,22.10
2022-12-23T16:53:50.393Z,22.10
2022-12-23T16:56:18.141Z,22.10
2022-12-23T16:58:45.017Z,22.10
2022-12-23T17:01:20.714Z,22.10
2022-12-23T17:03:47.356Z,22.10
2022-12-23T17:06:15.291Z,22.10
2022-12-23T17:08:42.014Z,22.10
2022-12-23T17:11:23.007Z,22.10
2022-12-23T17:13:49.664Z,22.20
2022-12-23T17:16:19.959Z,22.20
2022-12-23T17:18:47.689Z,22.10
2022-12-23T17:21:23.529Z,22.20
2022-12-23T17:23:51.038Z,22.20
2022-12-23T17:26:17.678Z,22.20
2022-12-23T17:28:44.339Z,22.20
2022-12-23T17:31:14.925Z,22.20
2022-12-23T17:33:43.709Z,22.20
2022-12-23T17:36:11.104Z,22.20
2022-12-23T17:38:37.781Z,22.20
2022-12-23T17:41:04.427Z,22.20
2022-12-23T17:43:31.038Z,22.20
2022-12-23T17:45:57.725Z,22.20
2022-12-23T17:48:31.078Z,22.20
2022-12-23T17:50:58.392Z,22.30
2022-12-23T17:53:25.008Z,22.30
2022-12-23T17:55:51.623Z,22.20
2022-12-23T17:58:18.249Z,22.20
2022-12-23T18:00:44.968Z,22.20
2022-12-23T18:03:21.302Z,22.20
2022-12-23T18:05:47.891Z,22.20
2022-12-23T18:08:14.489Z,22.20
2022-12-23T18:10:41.114Z,22.20
2022-12-23T18:13:09.695Z,22.20
2022-12-23T18:15:37.767Z,22.20
2022-12-23T18:18:28.617Z,22.20
2022-12-23T18:20:59.969Z,22.20
2022-12-23T18:23:30.697Z,22.30
2022-12-23T18:25:57.410Z,22.30
2022-12-23T18:28:24.283Z,22.30
2022-12-23T18:30:51.464Z,22.30
2022-12-23T18:33:18.090Z,22.30
2022-12-23T18:35:46.127Z,22.30
2022-12-23T18:38:12.912Z,22.30
2022-12-23T18:40:41.370Z,22.30
2022-12-23T18:43:16.147Z,22.30
2022-12-23T18:45:49.134Z,22.40
2022-12-23T18:48:18.911Z,22.40
2022-12-23T18:50:46.711Z,22.40
2022-12-23T18:53:23.406Z,22.40
2022-12-23T18:55:50.739Z,22.40
2022-12-23T18:58:20.517Z,22.40
2022-12-23T19:00:47.617Z,22.40
2022-12-23T19:03:24.195Z,22.40
2022-12-23T19:05:51.364Z,22.40
2022-12-23T19:08:25.511Z,22.40
2022-12-23T19:10:53.178Z,22.40
2022-12-23T19:13:19.933Z,22.30
2022-12-23T19:15:46.712Z,22.40
2022-12-23T19:18:14.719Z,22.40
2022-12-23T19:20:42.794Z,22.40
2022-12-23T19:23:10.333Z,22.40
2022-12-23T19:25:36.999Z,22.40
2022-12-23T19:28:03.655Z,22.40
2022-12-23T19:30:30.326Z,22.40
2022-12-23T19:32:56.934Z,22.40
2022-12-23T19:35:23.554Z,22.40
2022-12-23T19:37:50.253Z,22.40
2022-12-23T19:40:17.042Z,22.40
2022-12-23T19:42:43.784Z,22.50
2022-12-23T19:45:10.779Z,22.50
2022-12-23T19:47:37.528Z,22.40
2022-12-23T19:50:04.887Z,22.50
2022-12-23T19:52:31.488Z,22.50
2022-12-23T19:54:58.078Z,22.50
2022-12-23T19:57:24.828Z,22.50
2022-12-23T19:59:51.416Z,22.50
2022-12-23T20:02:19.886Z,22.40
2022-12-23T20:04:46.603Z,22.40
2022-12-23T20:07:13.218Z,22.40
2022-12-23T20:09:39.801Z,22.40
2022-12-23T20:12:06.431Z,22.40
2022-12-23T20:14:34.411Z,22.40
2022-12-23T20:17:01.358Z,22.40
2022-12-23T20:19:28.021Z,22.40
2022-12-23T20:21:54.639Z,22.40
2022-12-23T20:24:21.234Z,22.50
2022-12-23T20:26:47.958Z,22.50
2022-12-23T20:29:14.538Z,22.50
2022-12-23T20:31:41.445Z,22.50
2022-12-23T20:34:08.841Z,22.50
2022-12-23T20:36:36.095Z,22.50
2022-12-23T20:39:03.393Z,22.50
2022-12-23T20:41:31.065Z,22.50
2022-12-23T20:44:32.277Z,22.40
2022-12-23T20:46:44.487Z,22.50
2022-12-23T20:49:11.157Z,22.40
2022-12-23T20:51:37.817Z,22.40
2022-12-23T20:54:04.442Z,22.40
2022-12-23T20:56:31.704Z,22.40
2022-12-23T20:58:59.136Z,22.40
2022-12-23T21:01:37.992Z,22.40
2022-12-23T21:04:06.815Z,22.40
2022-12-23T21:06:33.568Z,22.40
2022-12-23T21:09:00.746Z,22.40
2022-12-23T21:11:28.583Z,22.40
2022-12-23T21:13:57.027Z,22.40
2022-12-23T21:16:26.608Z,22.30
2022-12-23T21:18:53.270Z,22.40
2022-12-23T21:21:22.221Z,22.40
2022-12-23T21:23:48.802Z,22.30
2022-12-23T21:26:20.205Z,22.30
2022-12-23T21:28:47.509Z,22.30
2022-12-23T21:31:15.636Z,22.30
2022-12-23T21:33:43.375Z,22.30
2022-12-23T21:36:13.622Z,22.30
2022-12-23T21:38:43.826Z,22.30
2022-12-23T21:41:12.109Z,22.30
2022-12-23T21:43:38.719Z,22.30
2022-12-23T21:46:07.552Z,22.30
2022-12-23T21:48:35.035Z,22.30
2022-12-23T21:51:17.598Z,22.20
2022-12-23T21:53:45.455Z,22.30
2022-12-23T21:56:16.542Z,22.20
2022-12-23T21:58:43.223Z,22.20
2022-12-23T22:01:11.840Z,22.20
2022-12-23T22:03:38.592Z,22.20
2022-12-23T22:06:10.711Z,22.20
2022-12-23T22:08:38.213Z,22.20
2022-12-23T22:11:12.196Z,22.20
2022-12-23T22:13:38.804Z,22.20
2022-12-23T22:16:09.006Z,22.20
2022-12-23T22:18:36.291Z,22.20
2022-12-23T22:21:06.669Z,22.20
2022-12-23T22:23:33.313Z,22.20
2022-12-23T22:26:00.038Z,22.10
2022-12-23T22:28:26.783Z,22.20
2022-12-23T22:30:53.408Z,22.10
2022-12-23T22:33:21.130Z,22.10
2022-12-23T22:35:55.575Z,22.10
2022-12-23T22:38:22.189Z,22.10
2022-12-23T22:40:50.053Z,22.10
2022-12-23T22:43:16.714Z,22.10
2022-12-23T22:45:43.329Z,22.10
2022-12-23T22:48:09.999Z,22.10
2022-12-23T22:50:36.660Z,22.10
2022-12-23T22:53:04.432Z,22.10
2022-12-23T22:55:31.019Z,22.10
2022-12-23T22:57:57.628Z,22.10
2022-12-23T23:00:24.260Z,22.10
2022-12-23T23:02:50.864Z,22.10
2022-12-23T23:05:17.517Z,22.10
2022-12-23T23:07:44.189Z,22.10
2022-12-23T23:10:11.044Z,22.10
2022-12-23T23:12:37.650Z,22.10
2022-12-23T23:15:04.462Z,22.10
2022-12-23T23:17:31.076Z,22.10
2022-12-23T23:19:57.689Z,22.00
2022-12-23T23:22:24.432Z,22.10
2022-12-23T23:24:51.381Z,22.10
2022-12-23T23:27:17.989Z,22.10
2022-12-23T23:29:44.626Z,22.00
2022-12-23T23:32:11.291Z,22.00
2022-12-23T23:34:37.978Z,22.00
2022-12-23T23:37:05.074Z,22.00
2022-12-23T23:39:31.696Z,22.00
2022-12-23T23:41:58.398Z,22.00
2022-12-23T23:44:24.983Z,22.00
2022-12-23T23:46:51.567Z,22.00
2022-12-23T23:49:18.188Z,22.00
2022-12-23T23:51:44.786Z,22.00
2022-12-23T23:54:11.395Z,22.00
2022-12-23T23:56:39.326Z,22.00
2022-12-23T23:59:06.594Z,22.00
